DAL1496 KSLC-KPHX
Flight info
| Callsign | DAL1496 |
|---|---|
| Flight time | 1h 25m |
| Altitude | 35000 |
| Route | ZIONZ1 BCE CORKR TENTS BRUSR1 |
| Aircraft | A321/M-SDE3FGHIRWY/LB1 |
Departure
| Time | 2026-05-05 01:45 |
|---|---|
| Airport | Salt Lake City International Airport (KSLC) |
Arrival
| Time | 2026-05-05 03:10 |
|---|---|
| Airport | Phoenix Sky Harbor International Airport (KPHX) |
| Time | Latitude | Longitude | Altitude | Speed | Heading |
|---|---|---|---|---|---|
| 2026-05-05 01:21 | 40.78666 | -111.98052 | 4235 ft | 0 kts | 175° |
| 2026-05-05 01:35 | 40.78689 | -111.98055 | 4234 ft | 4 kts | 173° |
| 2026-05-05 01:35 | 40.78714 | -111.98064 | 4234 ft | 4 kts | 146° |
| 2026-05-05 01:35 | 40.78731 | -111.98088 | 4233 ft | 4 kts | 99° |
| 2026-05-05 01:36 | 40.78732 | -111.98099 | 4233 ft | 0 kts | 85° |
| 2026-05-05 01:38 | 40.78733 | -111.98085 | 4234 ft | 5 kts | 85° |
| 2026-05-05 01:38 | 40.78738 | -111.98001 | 4235 ft | 15 kts | 85° |
| 2026-05-05 01:38 | 40.78750 | -111.97839 | 4235 ft | 18 kts | 83° |
| 2026-05-05 01:38 | 40.78812 | -111.97752 | 4235 ft | 12 kts | 51° |
| 2026-05-05 01:39 | 40.78879 | -111.97712 | 4235 ft | 11 kts | 351° |
| 2026-05-05 01:39 | 40.78945 | -111.97717 | 4235 ft | 8 kts | 5° |
| 2026-05-05 01:39 | 40.78991 | -111.97713 | 4235 ft | 7 kts | 2° |
| 2026-05-05 01:39 | 40.79082 | -111.97719 | 4235 ft | 18 kts | 356° |
| 2026-05-05 01:40 | 40.79191 | -111.97766 | 4235 ft | 14 kts | 299° |
| 2026-05-05 01:40 | 40.79278 | -111.97835 | 4234 ft | 17 kts | 354° |
| 2026-05-05 01:40 | 40.79395 | -111.97849 | 4234 ft | 17 kts | 354° |
| 2026-05-05 01:40 | 40.79508 | -111.97866 | 4234 ft | 16 kts | 354° |
| 2026-05-05 01:41 | 40.79611 | -111.97879 | 4234 ft | 15 kts | 355° |
| 2026-05-05 01:41 | 40.79718 | -111.97889 | 4234 ft | 16 kts | 355° |
| 2026-05-05 01:41 | 40.79866 | -111.97906 | 4234 ft | 27 kts | 353° |
| 2026-05-05 01:41 | 40.80057 | -111.97928 | 4235 ft | 27 kts | 355° |
| 2026-05-05 01:42 | 40.80237 | -111.97950 | 4235 ft | 25 kts | 349° |
| 2026-05-05 01:42 | 40.80399 | -111.97990 | 4232 ft | 23 kts | 350° |
| 2026-05-05 01:42 | 40.80549 | -111.98015 | 4235 ft | 21 kts | 352° |
| 2026-05-05 01:42 | 40.80683 | -111.98052 | 4234 ft | 18 kts | 0° |
| 2026-05-05 01:43 | 40.80738 | -111.97942 | 4234 ft | 15 kts | 85° |
| 2026-05-05 01:43 | 40.80743 | -111.97875 | 4234 ft | 0 kts | 83° |
| 2026-05-05 01:43 | 40.80746 | -111.97846 | 4234 ft | 9 kts | 83° |
| 2026-05-05 01:44 | 40.80712 | -111.97708 | 4233 ft | 21 kts | 142° |
| 2026-05-05 01:44 | 40.80491 | -111.97665 | 4237 ft | 55 kts | 174° |
| 2026-05-05 01:44 | 40.79895 | -111.97594 | 4234 ft | 114 kts | 175° |
| 2026-05-05 01:44 | 40.78937 | -111.97481 | 4236 ft | 160 kts | 175° |
| 2026-05-05 01:45 | 40.77710 | -111.97356 | 4391 ft | 185 kts | 176° |
| 2026-05-05 01:45 | 40.76469 | -111.97259 | 5166 ft | 177 kts | 176° |
| 2026-05-05 01:45 | 40.75232 | -111.97177 | 5822 ft | 176 kts | 174° |
| 2026-05-05 01:45 | 40.73976 | -111.97083 | 6068 ft | 187 kts | 175° |
| 2026-05-05 01:46 | 40.72632 | -111.96996 | 6222 ft | 199 kts | 175° |
| 2026-05-05 01:46 | 40.71208 | -111.96901 | 6359 ft | 210 kts | 174° |
| 2026-05-05 01:46 | 40.69718 | -111.96803 | 6499 ft | 218 kts | 174° |
| 2026-05-05 01:46 | 40.68174 | -111.96699 | 6628 ft | 225 kts | 175° |
| 2026-05-05 01:47 | 40.66585 | -111.96590 | 6758 ft | 233 kts | 174° |
| 2026-05-05 01:47 | 40.64946 | -111.96475 | 6864 ft | 239 kts | 174° |
| 2026-05-05 01:47 | 40.63276 | -111.96360 | 7000 ft | 242 kts | 175° |
| 2026-05-05 01:47 | 40.61588 | -111.96244 | 7195 ft | 243 kts | 176° |
| 2026-05-05 01:48 | 40.59897 | -111.96133 | 7438 ft | 243 kts | 177° |
| 2026-05-05 01:48 | 40.58168 | -111.96019 | 7569 ft | 258 kts | 177° |
| 2026-05-05 01:48 | 40.56300 | -111.95894 | 7784 ft | 277 kts | 177° |
| 2026-05-05 01:48 | 40.54352 | -111.95762 | 8345 ft | 283 kts | 177° |
| 2026-05-05 01:49 | 40.52373 | -111.95626 | 9012 ft | 286 kts | 178° |
| 2026-05-05 01:49 | 40.50382 | -111.95488 | 9703 ft | 288 kts | 177° |
| 2026-05-05 01:49 | 40.48359 | -111.95348 | 10149 ft | 299 kts | 178° |
| 2026-05-05 01:49 | 40.46211 | -111.95202 | 10272 ft | 320 kts | 178° |
| 2026-05-05 01:50 | 40.43919 | -111.95049 | 10431 ft | 338 kts | 177° |
| 2026-05-05 01:50 | 40.41571 | -111.94891 | 10878 ft | 346 kts | 178° |
| 2026-05-05 01:50 | 40.39160 | -111.94724 | 11486 ft | 349 kts | 177° |
| 2026-05-05 01:50 | 40.36725 | -111.94556 | 12094 ft | 352 kts | 178° |
| 2026-05-05 01:51 | 40.34271 | -111.94387 | 12725 ft | 355 kts | 178° |
| 2026-05-05 01:51 | 40.31794 | -111.94215 | 13331 ft | 358 kts | 178° |
| 2026-05-05 01:51 | 40.29296 | -111.94038 | 13909 ft | 361 kts | 178° |
| 2026-05-05 01:51 | 40.26778 | -111.93930 | 14448 ft | 363 kts | 184° |
| 2026-05-05 01:52 | 40.24252 | -111.94270 | 14967 ft | 366 kts | 188° |
| 2026-05-05 01:52 | 40.21711 | -111.94680 | 15513 ft | 369 kts | 188° |
| 2026-05-05 01:52 | 40.19152 | -111.95090 | 16060 ft | 372 kts | 188° |
| 2026-05-05 01:52 | 40.16574 | -111.95500 | 16604 ft | 374 kts | 188° |
| 2026-05-05 01:53 | 40.13979 | -111.95908 | 17137 ft | 377 kts | 187° |
| 2026-05-05 01:53 | 40.11366 | -111.96312 | 17659 ft | 380 kts | 187° |
| 2026-05-05 01:53 | 40.08733 | -111.96703 | 18157 ft | 382 kts | 187° |
| 2026-05-05 01:53 | 40.06080 | -111.97091 | 18560 ft | 385 kts | 187° |
| 2026-05-05 01:54 | 40.03417 | -111.97477 | 19022 ft | 386 kts | 187° |
| 2026-05-05 01:54 | 40.00740 | -111.97860 | 19459 ft | 388 kts | 187° |
| 2026-05-05 01:54 | 39.98047 | -111.98243 | 19883 ft | 390 kts | 187° |
| 2026-05-05 01:54 | 39.95339 | -111.98630 | 20319 ft | 393 kts | 187° |
| 2026-05-05 01:55 | 39.92613 | -111.99024 | 20738 ft | 395 kts | 187° |
| 2026-05-05 01:55 | 39.89874 | -111.99426 | 21157 ft | 398 kts | 187° |
| 2026-05-05 01:55 | 39.87114 | -111.99829 | 21570 ft | 400 kts | 187° |
| 2026-05-05 01:55 | 39.84337 | -112.00236 | 21977 ft | 403 kts | 187° |
| 2026-05-05 01:56 | 39.81547 | -112.00646 | 22412 ft | 404 kts | 187° |
| 2026-05-05 01:56 | 39.78739 | -112.01058 | 22803 ft | 407 kts | 187° |
| 2026-05-05 01:56 | 39.75919 | -112.01471 | 23219 ft | 409 kts | 187° |
| 2026-05-05 01:56 | 39.73079 | -112.01886 | 23557 ft | 412 kts | 187° |
| 2026-05-05 01:57 | 39.70226 | -112.02302 | 23887 ft | 414 kts | 187° |
| 2026-05-05 01:57 | 39.67357 | -112.02715 | 24227 ft | 416 kts | 187° |
| 2026-05-05 01:57 | 39.64476 | -112.03128 | 24554 ft | 417 kts | 187° |
| 2026-05-05 01:57 | 39.61584 | -112.03546 | 24891 ft | 419 kts | 188° |
| 2026-05-05 01:58 | 39.58686 | -112.03965 | 25241 ft | 420 kts | 188° |
| 2026-05-05 01:58 | 39.55777 | -112.04389 | 25587 ft | 421 kts | 188° |
| 2026-05-05 01:58 | 39.52861 | -112.04813 | 25914 ft | 422 kts | 189° |
| 2026-05-05 01:58 | 39.49935 | -112.05238 | 26245 ft | 424 kts | 189° |
| 2026-05-05 01:59 | 39.46998 | -112.05663 | 26574 ft | 425 kts | 189° |
| 2026-05-05 01:59 | 39.44052 | -112.06086 | 26882 ft | 427 kts | 189° |
| 2026-05-05 01:59 | 39.41093 | -112.06503 | 27166 ft | 428 kts | 189° |
| 2026-05-05 01:59 | 39.38126 | -112.06921 | 27449 ft | 430 kts | 189° |
| 2026-05-05 02:00 | 39.35146 | -112.07343 | 27746 ft | 431 kts | 190° |
| 2026-05-05 02:00 | 39.32156 | -112.07768 | 28040 ft | 433 kts | 190° |
| 2026-05-05 02:00 | 39.29157 | -112.08196 | 28325 ft | 434 kts | 190° |
| 2026-05-05 02:00 | 39.26147 | -112.08623 | 28606 ft | 436 kts | 190° |
| 2026-05-05 02:01 | 39.23128 | -112.09050 | 28894 ft | 437 kts | 190° |
| 2026-05-05 02:01 | 39.20097 | -112.09478 | 29181 ft | 439 kts | 190° |
| 2026-05-05 02:01 | 39.18085 | -112.09760 | 29352 ft | 440 kts | 191° |
| 2026-05-05 02:01 | 39.14011 | -112.10333 | 29801 ft | 440 kts | 191° |
| 2026-05-05 02:02 | 39.11994 | -112.10617 | 30008 ft | 440 kts | 191° |
| 2026-05-05 02:02 | 39.08958 | -112.11040 | 30351 ft | 438 kts | 191° |
| 2026-05-05 02:02 | 39.05933 | -112.11463 | 30664 ft | 436 kts | 191° |
| 2026-05-05 02:02 | 39.02884 | -112.11892 | 30975 ft | 434 kts | 192° |
| 2026-05-05 02:03 | 38.99932 | -112.12307 | 31301 ft | 431 kts | 192° |
| 2026-05-05 02:03 | 38.96958 | -112.12725 | 31627 ft | 428 kts | 193° |
| 2026-05-05 02:03 | 38.94011 | -112.13135 | 32071 ft | 423 kts | 195° |
| 2026-05-05 02:03 | 38.91095 | -112.13544 | 32482 ft | 419 kts | 194° |
| 2026-05-05 02:04 | 38.88211 | -112.13946 | 32914 ft | 415 kts | 194° |
| 2026-05-05 02:04 | 38.85353 | -112.14345 | 33303 ft | 412 kts | 194° |
| 2026-05-05 02:04 | 38.82517 | -112.14743 | 33674 ft | 408 kts | 195° |
| 2026-05-05 02:04 | 38.79703 | -112.15136 | 34018 ft | 405 kts | 195° |
| 2026-05-05 02:05 | 38.76911 | -112.15525 | 34308 ft | 403 kts | 195° |
| 2026-05-05 02:05 | 38.74137 | -112.15911 | 34595 ft | 399 kts | 196° |
| 2026-05-05 02:05 | 38.71392 | -112.16290 | 34772 ft | 393 kts | 197° |
| 2026-05-05 02:05 | 38.68701 | -112.16661 | 34805 ft | 386 kts | 197° |
| 2026-05-05 02:06 | 38.63386 | -112.17404 | 34788 ft | 383 kts | 197° |
| 2026-05-05 02:06 | 38.58092 | -112.18149 | 34788 ft | 383 kts | 197° |
| 2026-05-05 02:07 | 38.52800 | -112.18887 | 34793 ft | 382 kts | 197° |
| 2026-05-05 02:07 | 38.47509 | -112.19618 | 34799 ft | 383 kts | 197° |
| 2026-05-05 02:08 | 38.42208 | -112.20352 | 34798 ft | 383 kts | 197° |
| 2026-05-05 02:08 | 38.36910 | -112.21089 | 34806 ft | 383 kts | 197° |
| 2026-05-05 02:09 | 38.31610 | -112.21825 | 34804 ft | 383 kts | 197° |
| 2026-05-05 02:09 | 38.26315 | -112.22549 | 34820 ft | 382 kts | 197° |
| 2026-05-05 02:10 | 38.21045 | -112.23270 | 34830 ft | 380 kts | 197° |
| 2026-05-05 02:10 | 38.15797 | -112.23995 | 34831 ft | 379 kts | 197° |
| 2026-05-05 02:11 | 38.10561 | -112.24716 | 34832 ft | 378 kts | 197° |
| 2026-05-05 02:11 | 38.05335 | -112.25421 | 34821 ft | 377 kts | 197° |
| 2026-05-05 02:12 | 37.97540 | -112.26482 | 34839 ft | 374 kts | 198° |
| 2026-05-05 02:13 | 37.92376 | -112.27190 | 34930 ft | 373 kts | 198° |
| 2026-05-05 02:13 | 37.87225 | -112.27895 | 34951 ft | 372 kts | 198° |
| 2026-05-05 02:14 | 37.82088 | -112.28598 | 34982 ft | 371 kts | 198° |
| 2026-05-05 02:14 | 37.76968 | -112.29292 | 35005 ft | 369 kts | 198° |
| 2026-05-05 02:15 | 37.71865 | -112.29983 | 35010 ft | 368 kts | 198° |
| 2026-05-05 02:15 | 37.66762 | -112.30622 | 35001 ft | 371 kts | 196° |
| 2026-05-05 02:16 | 37.61591 | -112.30948 | 34962 ft | 373 kts | 194° |
| 2026-05-05 02:16 | 37.56415 | -112.31182 | 34950 ft | 371 kts | 194° |
| 2026-05-05 02:17 | 37.51262 | -112.31465 | 34925 ft | 370 kts | 195° |
| 2026-05-05 02:17 | 37.46128 | -112.31781 | 34887 ft | 369 kts | 195° |
| 2026-05-05 02:18 | 37.41001 | -112.32102 | 34858 ft | 369 kts | 195° |
| 2026-05-05 02:18 | 37.35871 | -112.32415 | 34803 ft | 369 kts | 195° |
| 2026-05-05 02:19 | 37.30746 | -112.32723 | 34807 ft | 368 kts | 195° |
| 2026-05-05 02:19 | 37.25631 | -112.33035 | 34807 ft | 368 kts | 195° |
| 2026-05-05 02:20 | 37.20550 | -112.33343 | 34814 ft | 368 kts | 195° |
| 2026-05-05 02:20 | 37.15436 | -112.33653 | 34789 ft | 367 kts | 194° |
| 2026-05-05 02:21 | 37.10335 | -112.33964 | 34808 ft | 367 kts | 194° |
| 2026-05-05 02:21 | 37.05206 | -112.34274 | 34818 ft | 366 kts | 194° |
| 2026-05-05 02:22 | 37.00153 | -112.34575 | 34823 ft | 366 kts | 194° |
| 2026-05-05 02:22 | 36.95074 | -112.34876 | 34811 ft | 365 kts | 194° |
| 2026-05-05 02:23 | 36.90004 | -112.35183 | 34823 ft | 364 kts | 194° |
| 2026-05-05 02:23 | 36.84946 | -112.35488 | 34835 ft | 364 kts | 194° |
| 2026-05-05 02:24 | 36.79895 | -112.35789 | 34838 ft | 363 kts | 194° |
| 2026-05-05 02:24 | 36.74850 | -112.36090 | 34843 ft | 363 kts | 194° |
| 2026-05-05 02:25 | 36.69807 | -112.36394 | 34817 ft | 363 kts | 194° |
| 2026-05-05 02:25 | 36.64765 | -112.36696 | 34828 ft | 363 kts | 194° |
| 2026-05-05 02:26 | 36.59723 | -112.36998 | 34833 ft | 363 kts | 194° |
| 2026-05-05 02:26 | 36.54680 | -112.37296 | 34841 ft | 363 kts | 194° |
| 2026-05-05 02:27 | 36.49639 | -112.37593 | 34845 ft | 363 kts | 194° |
| 2026-05-05 02:27 | 36.44595 | -112.37895 | 34840 ft | 362 kts | 194° |
| 2026-05-05 02:28 | 36.39556 | -112.38202 | 34846 ft | 363 kts | 194° |
| 2026-05-05 02:28 | 36.34513 | -112.38498 | 34847 ft | 362 kts | 194° |
| 2026-05-05 02:29 | 36.29482 | -112.38797 | 34850 ft | 362 kts | 194° |
| 2026-05-05 02:29 | 36.24453 | -112.39093 | 34857 ft | 361 kts | 194° |
| 2026-05-05 02:30 | 36.19427 | -112.39392 | 34881 ft | 362 kts | 194° |
| 2026-05-05 02:30 | 36.14404 | -112.39684 | 34902 ft | 361 kts | 194° |
| 2026-05-05 02:31 | 36.09381 | -112.39980 | 34929 ft | 361 kts | 194° |
| 2026-05-05 02:31 | 36.04371 | -112.40339 | 34943 ft | 360 kts | 195° |
| 2026-05-05 02:32 | 35.99383 | -112.40802 | 34929 ft | 359 kts | 195° |
| 2026-05-05 02:32 | 35.94395 | -112.41261 | 34935 ft | 360 kts | 195° |
| 2026-05-05 02:33 | 35.89403 | -112.41703 | 34937 ft | 360 kts | 195° |
| 2026-05-05 02:33 | 35.84404 | -112.42141 | 34770 ft | 361 kts | 195° |
| 2026-05-05 02:33 | 35.81899 | -112.42356 | 34539 ft | 361 kts | 195° |
| 2026-05-05 02:34 | 35.79392 | -112.42571 | 34310 ft | 361 kts | 194° |
| 2026-05-05 02:34 | 35.76880 | -112.42788 | 34055 ft | 362 kts | 195° |
| 2026-05-05 02:34 | 35.74370 | -112.43005 | 33806 ft | 362 kts | 194° |
| 2026-05-05 02:34 | 35.71848 | -112.43226 | 33538 ft | 364 kts | 194° |
| 2026-05-05 02:35 | 35.69319 | -112.43448 | 33269 ft | 365 kts | 194° |
| 2026-05-05 02:35 | 35.66778 | -112.43670 | 33002 ft | 367 kts | 194° |
| 2026-05-05 02:35 | 35.64234 | -112.43892 | 32740 ft | 367 kts | 194° |
| 2026-05-05 02:35 | 35.61690 | -112.44114 | 32488 ft | 366 kts | 194° |
| 2026-05-05 02:36 | 35.59152 | -112.44335 | 32241 ft | 365 kts | 194° |
| 2026-05-05 02:36 | 35.56618 | -112.44555 | 31997 ft | 365 kts | 194° |
| 2026-05-05 02:36 | 35.54085 | -112.44775 | 31740 ft | 365 kts | 194° |
| 2026-05-05 02:36 | 35.51557 | -112.44995 | 31505 ft | 365 kts | 194° |
| 2026-05-05 02:37 | 35.48992 | -112.45023 | 31279 ft | 373 kts | 188° |
| 2026-05-05 02:37 | 35.46386 | -112.44645 | 31050 ft | 381 kts | 183° |
| 2026-05-05 02:37 | 35.43777 | -112.44125 | 30824 ft | 380 kts | 183° |
| 2026-05-05 02:37 | 35.41169 | -112.43612 | 30599 ft | 379 kts | 183° |
| 2026-05-05 02:38 | 35.38566 | -112.43099 | 30375 ft | 378 kts | 183° |
| 2026-05-05 02:38 | 35.35969 | -112.42587 | 30150 ft | 378 kts | 183° |
| 2026-05-05 02:38 | 35.33376 | -112.42078 | 29899 ft | 377 kts | 183° |
| 2026-05-05 02:38 | 35.30785 | -112.41570 | 29614 ft | 377 kts | 182° |
| 2026-05-05 02:39 | 35.28200 | -112.41060 | 29341 ft | 376 kts | 182° |
| 2026-05-05 02:39 | 35.25619 | -112.40550 | 29085 ft | 375 kts | 182° |
| 2026-05-05 02:39 | 35.23044 | -112.40045 | 28968 ft | 374 kts | 182° |
| 2026-05-05 02:40 | 35.17891 | -112.39040 | 28982 ft | 376 kts | 182° |
| 2026-05-05 02:40 | 35.12726 | -112.37935 | 28884 ft | 377 kts | 181° |
| 2026-05-05 02:41 | 35.07565 | -112.36786 | 28882 ft | 376 kts | 181° |
| 2026-05-05 02:41 | 35.02428 | -112.35651 | 28881 ft | 375 kts | 181° |
| 2026-05-05 02:42 | 34.97296 | -112.34537 | 28900 ft | 374 kts | 182° |
| 2026-05-05 02:42 | 34.92174 | -112.33439 | 28928 ft | 374 kts | 182° |
| 2026-05-05 02:43 | 34.87044 | -112.32337 | 28920 ft | 374 kts | 181° |
| 2026-05-05 02:43 | 34.81927 | -112.31219 | 28973 ft | 373 kts | 181° |
| 2026-05-05 02:44 | 34.77676 | -112.30274 | 28991 ft | 373 kts | 181° |
| 2026-05-05 02:44 | 34.72570 | -112.29147 | 29008 ft | 373 kts | 181° |
| 2026-05-05 02:45 | 34.66604 | -112.27836 | 29014 ft | 373 kts | 181° |
| 2026-05-05 02:45 | 34.62360 | -112.26904 | 28999 ft | 374 kts | 180° |
| 2026-05-05 02:46 | 34.57227 | -112.25780 | 28994 ft | 375 kts | 180° |
| 2026-05-05 02:46 | 34.52089 | -112.24655 | 28971 ft | 375 kts | 180° |
| 2026-05-05 02:47 | 34.46958 | -112.23528 | 28959 ft | 375 kts | 180° |
| 2026-05-05 02:47 | 34.41847 | -112.22364 | 28896 ft | 373 kts | 179° |
| 2026-05-05 02:48 | 34.36739 | -112.21037 | 28897 ft | 378 kts | 178° |
| 2026-05-05 02:48 | 34.31602 | -112.19660 | 28898 ft | 378 kts | 178° |
| 2026-05-05 02:49 | 34.26469 | -112.18310 | 28897 ft | 377 kts | 178° |
| 2026-05-05 02:49 | 34.21330 | -112.16986 | 28901 ft | 378 kts | 178° |
| 2026-05-05 02:50 | 34.16191 | -112.15666 | 28884 ft | 378 kts | 178° |
| 2026-05-05 02:50 | 34.11106 | -112.14353 | 28892 ft | 362 kts | 178° |
| 2026-05-05 02:51 | 34.06313 | -112.12794 | 28880 ft | 358 kts | 172° |
| 2026-05-05 02:51 | 34.01557 | -112.10875 | 28900 ft | 362 kts | 172° |
| 2026-05-05 02:52 | 33.96791 | -112.08910 | 28893 ft | 362 kts | 172° |
| 2026-05-05 02:52 | 33.92030 | -112.06963 | 28894 ft | 361 kts | 172° |
| 2026-05-05 02:53 | 33.87264 | -112.05026 | 28898 ft | 361 kts | 172° |
| 2026-05-05 02:53 | 33.82503 | -112.03102 | 28894 ft | 361 kts | 172° |
| 2026-05-05 02:54 | 33.77735 | -112.01165 | 28893 ft | 362 kts | 172° |
| 2026-05-05 02:54 | 33.72967 | -111.99230 | 28945 ft | 362 kts | 172° |
| 2026-05-05 02:55 | 33.68217 | -111.97319 | 28959 ft | 361 kts | 172° |
| 2026-05-05 02:55 | 33.65841 | -111.96361 | 28076 ft | 364 kts | 172° |
| 2026-05-05 02:55 | 33.63394 | -111.95385 | 26422 ft | 377 kts | 171° |
| 2026-05-05 02:55 | 33.60870 | -111.94381 | 24817 ft | 387 kts | 170° |
| 2026-05-05 02:56 | 33.58289 | -111.93348 | 23200 ft | 396 kts | 169° |
| 2026-05-05 02:56 | 33.55658 | -111.92266 | 21367 ft | 405 kts | 166° |
| 2026-05-05 02:56 | 33.53171 | -111.90440 | 19698 ft | 427 kts | 142° |
| 2026-05-05 02:56 | 33.51407 | -111.87588 | 18207 ft | 441 kts | 118° |
| 2026-05-05 02:57 | 33.50584 | -111.84032 | 16436 ft | 449 kts | 96° |
| 2026-05-05 02:57 | 33.50829 | -111.80309 | 14886 ft | 449 kts | 79° |
| 2026-05-05 02:57 | 33.51544 | -111.76697 | 13454 ft | 442 kts | 77° |
| 2026-05-05 02:57 | 33.52262 | -111.73152 | 12017 ft | 433 kts | 77° |
| 2026-05-05 02:58 | 33.52951 | -111.69690 | 10692 ft | 421 kts | 81° |
| 2026-05-05 02:58 | 33.53338 | -111.66265 | 9384 ft | 409 kts | 87° |
| 2026-05-05 02:58 | 33.53491 | -111.62924 | 8253 ft | 393 kts | 91° |
| 2026-05-05 02:58 | 33.53510 | -111.59729 | 7495 ft | 370 kts | 92° |
| 2026-05-05 02:59 | 33.53486 | -111.56784 | 7247 ft | 336 kts | 93° |
| 2026-05-05 02:59 | 33.53473 | -111.54110 | 7069 ft | 306 kts | 92° |
| 2026-05-05 02:59 | 33.53482 | -111.51696 | 7072 ft | 274 kts | 92° |
| 2026-05-05 02:59 | 33.53504 | -111.49485 | 7081 ft | 262 kts | 92° |
| 2026-05-05 03:00 | 33.53530 | -111.47306 | 7086 ft | 261 kts | 92° |
| 2026-05-05 03:00 | 33.53564 | -111.45136 | 7118 ft | 261 kts | 93° |
| 2026-05-05 03:00 | 33.53285 | -111.43015 | 7084 ft | 256 kts | 115° |
| 2026-05-05 03:00 | 33.52338 | -111.41261 | 7091 ft | 249 kts | 139° |
| 2026-05-05 03:01 | 33.50920 | -111.40166 | 7094 ft | 241 kts | 163° |
| 2026-05-05 03:01 | 33.49291 | -111.39881 | 7090 ft | 237 kts | 186° |
| 2026-05-05 03:01 | 33.47724 | -111.40424 | 7094 ft | 235 kts | 210° |
| 2026-05-05 03:01 | 33.46493 | -111.41686 | 7084 ft | 236 kts | 232° |
| 2026-05-05 03:02 | 33.45796 | -111.43459 | 7083 ft | 238 kts | 255° |
| 2026-05-05 03:02 | 33.45554 | -111.45429 | 7082 ft | 240 kts | 259° |
| 2026-05-05 03:02 | 33.45331 | -111.47411 | 7083 ft | 241 kts | 259° |
| 2026-05-05 03:02 | 33.45107 | -111.49398 | 7082 ft | 241 kts | 259° |
| 2026-05-05 03:03 | 33.44883 | -111.51385 | 7082 ft | 241 kts | 259° |
| 2026-05-05 03:03 | 33.44658 | -111.53376 | 7084 ft | 241 kts | 259° |
| 2026-05-05 03:03 | 33.44428 | -111.55366 | 7078 ft | 241 kts | 257° |
| 2026-05-05 03:03 | 33.44074 | -111.57319 | 7128 ft | 241 kts | 258° |
| 2026-05-05 03:04 | 33.43950 | -111.59325 | 7138 ft | 243 kts | 266° |
| 2026-05-05 03:04 | 33.43957 | -111.61351 | 7055 ft | 243 kts | 267° |
| 2026-05-05 03:04 | 33.43975 | -111.63375 | 6821 ft | 243 kts | 267° |
| 2026-05-05 03:04 | 33.43986 | -111.65394 | 6529 ft | 242 kts | 267° |
| 2026-05-05 03:05 | 33.43994 | -111.67413 | 6218 ft | 243 kts | 267° |
| 2026-05-05 03:05 | 33.44002 | -111.69430 | 5895 ft | 242 kts | 268° |
| 2026-05-05 03:05 | 33.44010 | -111.71442 | 5576 ft | 241 kts | 268° |
| 2026-05-05 03:05 | 33.44017 | -111.73442 | 5259 ft | 240 kts | 269° |
| 2026-05-05 03:06 | 33.44024 | -111.75438 | 4944 ft | 239 kts | 269° |
| 2026-05-05 03:06 | 33.44030 | -111.77421 | 4635 ft | 238 kts | 269° |
| 2026-05-05 03:06 | 33.44037 | -111.79395 | 4328 ft | 236 kts | 269° |
| 2026-05-05 03:06 | 33.44042 | -111.81356 | 4014 ft | 235 kts | 268° |
| 2026-05-05 03:07 | 33.44048 | -111.83305 | 3709 ft | 234 kts | 269° |
| 2026-05-05 03:07 | 33.44053 | -111.85240 | 3402 ft | 232 kts | 269° |
| 2026-05-05 03:07 | 33.44058 | -111.87145 | 3085 ft | 232 kts | 270° |
| 2026-05-05 03:07 | 33.44062 | -111.89038 | 2784 ft | 220 kts | 270° |
| 2026-05-05 03:08 | 33.44067 | -111.90828 | 2504 ft | 211 kts | 269° |
| 2026-05-05 03:08 | 33.44070 | -111.92506 | 2265 ft | 192 kts | 270° |
| 2026-05-05 03:08 | 33.44073 | -111.94020 | 2047 ft | 173 kts | 271° |
| 2026-05-05 03:08 | 33.44076 | -111.95383 | 1821 ft | 156 kts | 270° |
| 2026-05-05 03:09 | 33.44078 | -111.96642 | 1548 ft | 148 kts | 271° |
| 2026-05-05 03:09 | 33.44086 | -111.97847 | 1471 ft | 147 kts | 269° |
| 2026-05-05 03:09 | 33.44084 | -111.99058 | 1254 ft | 144 kts | 270° |
| 2026-05-05 03:09 | 33.44080 | -112.00245 | 1145 ft | 141 kts | 272° |
| 2026-05-05 03:10 | 33.44087 | -112.01272 | 1132 ft | 97 kts | 272° |
| 2026-05-05 03:10 | 33.44085 | -112.01855 | 1124 ft | 34 kts | 268° |
| 2026-05-05 03:10 | 33.44038 | -112.02037 | 1118 ft | 17 kts | 226° |
| 2026-05-05 03:10 | 33.43956 | -112.02122 | 1129 ft | 13 kts | 197° |
| 2026-05-05 03:11 | 33.43900 | -112.02070 | 1132 ft | 10 kts | 110° |
| 2026-05-05 03:11 | 33.43897 | -112.01996 | 1130 ft | 10 kts | 90° |
| 2026-05-05 03:11 | 33.43901 | -112.01879 | 1130 ft | 16 kts | 89° |
| 2026-05-05 03:11 | 33.43900 | -112.01753 | 1130 ft | 14 kts | 91° |
| 2026-05-05 03:12 | 33.43898 | -112.01631 | 1130 ft | 17 kts | 91° |
| 2026-05-05 03:12 | 33.43899 | -112.01493 | 1130 ft | 16 kts | 84° |
| 2026-05-05 03:12 | 33.43902 | -112.01366 | 1131 ft | 15 kts | 91° |
| 2026-05-05 03:12 | 33.43901 | -112.01245 | 1131 ft | 15 kts | 91° |
| 2026-05-05 03:13 | 33.43898 | -112.01120 | 1131 ft | 15 kts | 92° |
| 2026-05-05 03:13 | 33.43849 | -112.01025 | 1134 ft | 15 kts | 167° |
| 2026-05-05 03:13 | 33.43759 | -112.01002 | 1133 ft | 9 kts | 111° |
| 2026-05-05 03:13 | 33.43748 | -112.00954 | 1132 ft | 0 kts | 101° |